Terminal Aerodrome Forecast
Issued by NWS Grand Forks, ND

Home | Current Version | Previous Version | Text Only | Print | Product List | Glossary On
Versions: 1 2 3 4 5 6 7 8 9 10 11 12 13 14 15 16 17 18 19 20 21 22 23 24 25 26
000
FTUS43 KFGF 231136
TAFGFK
TAF
KGFK 231136Z 2312/2412 VRB03KT P6SM SCT250
     FM231600 18009KT P6SM BKN250
     FM232100 20017G25KT P6SM SCT090 BKN250
     FM240700 21009KT P6SM BKN090
     FM241100 24006KT P6SM SCT150=

USA.gov is the U.S. government's official web portal to all federal, state and local government web resources and services.